createdAt,value
2019-06-08T00:01:10.466Z,32.47
2019-06-08T00:04:18.612Z,32.63
2019-06-08T00:07:26.353Z,33.37
2019-06-08T00:10:34.005Z,35.03
2019-06-08T00:13:41.915Z,35.60
2019-06-08T00:16:49.531Z,36.07
2019-06-08T00:19:57.018Z,41.67
2019-06-08T00:23:04.759Z,40.20
2019-06-08T00:26:13.892Z,41.70
2019-06-08T00:29:22.409Z,40.97
2019-06-08T00:32:29.968Z,43.47
2019-06-08T00:35:37.418Z,50.27
2019-06-08T00:38:45.119Z,44.53
2019-06-08T00:41:52.724Z,51.63
2019-06-08T00:45:00.322Z,48.83
2019-06-08T00:48:07.719Z,47.60
2019-06-08T00:51:15.204Z,43.30
2019-06-08T00:54:23.507Z,51.83
2019-06-08T00:57:31.008Z,45.77
2019-06-08T01:00:38.917Z,48.27
2019-06-08T01:03:46.378Z,48.17
2019-06-08T01:06:55.070Z,50.73
2019-06-08T01:10:02.673Z,48.33
2019-06-08T01:13:10.311Z,51.23
2019-06-08T01:16:18.793Z,48.90
2019-06-08T01:19:27.436Z,56.73
2019-06-08T01:22:34.946Z,54.27
2019-06-08T01:25:42.766Z,56.13
2019-06-08T01:28:50.174Z,50.77
2019-06-08T01:31:57.740Z,50.57
2019-06-08T01:35:05.851Z,53.70
2019-06-08T01:38:13.396Z,50.17
2019-06-08T01:41:21.346Z,47.27
2019-06-08T01:44:30.090Z,48.63
2019-06-08T01:47:37.780Z,51.00
2019-06-08T01:50:45.708Z,49.57
2019-06-08T01:53:53.182Z,54.80
2019-06-08T01:57:00.850Z,50.83
2019-06-08T02:00:29.332Z,48.30
2019-06-08T02:03:18.163Z,50.20
2019-06-08T02:06:26.249Z,59.53
2019-06-08T02:09:35.696Z,52.63
2019-06-08T02:12:43.316Z,46.53
2019-06-08T02:15:51.180Z,48.27
2019-06-08T02:18:58.709Z,48.93
2019-06-08T02:22:06.383Z,52.33
2019-06-08T02:25:16.547Z,48.80
2019-06-08T02:28:24.020Z,47.40
2019-06-08T02:31:32.772Z,51.60
2019-06-08T02:34:41.073Z,50.17
2019-06-08T02:37:48.699Z,55.53
2019-06-08T02:40:56.350Z,48.67
2019-06-08T02:44:04.075Z,54.37
2019-06-08T02:47:15.455Z,52.77
2019-06-08T02:50:48.005Z,47.90
2019-06-08T02:53:55.633Z,50.20
2019-06-08T02:57:05.289Z,51.57
2019-06-08T03:00:13.414Z,50.77
2019-06-08T03:03:21.033Z,48.37
2019-06-08T03:06:32.273Z,51.53
2019-06-08T03:09:41.220Z,51.60
2019-06-08T03:12:51.603Z,53.00
2019-06-08T03:15:59.302Z,50.93
2019-06-08T03:19:20.639Z,49.33
2019-06-08T03:22:16.075Z,46.63
2019-06-08T03:25:23.585Z,44.70
2019-06-08T03:28:32.504Z,46.50
2019-06-08T03:31:49.686Z,50.30
2019-06-08T03:34:55.694Z,48.70
2019-06-08T03:37:58.525Z,51.53
2019-06-08T03:41:05.995Z,52.33
2019-06-08T03:44:13.458Z,50.40
2019-06-08T03:47:21.003Z,49.80
2019-06-08T03:50:28.488Z,48.10
2019-06-08T03:53:37.733Z,48.33
2019-06-08T03:56:46.172Z,45.30
2019-06-08T03:59:53.785Z,49.60
2019-06-08T04:03:01.477Z,43.07
2019-06-08T04:06:08.943Z,38.80
2019-06-08T04:09:16.399Z,41.90
2019-06-08T04:12:23.788Z,36.63
2019-06-08T04:15:31.449Z,37.00
2019-06-08T04:18:40.286Z,34.87
2019-06-08T04:21:48.038Z,33.47
2019-06-08T04:24:55.520Z,35.20
2019-06-08T04:28:02.919Z,32.80
2019-06-08T04:31:10.389Z,32.53
2019-06-08T04:34:17.839Z,33.33
2019-06-08T04:37:25.313Z,33.27
2019-06-08T04:40:32.772Z,29.03
2019-06-08T04:43:42.780Z,30.80
2019-06-08T04:46:50.846Z,29.07
2019-06-08T04:49:58.363Z,27.67
2019-06-08T04:53:05.835Z,26.70
2019-06-08T04:56:13.297Z,26.40
2019-06-08T04:59:20.813Z,25.47
2019-06-08T05:02:28.333Z,25.60
2019-06-08T05:05:35.819Z,24.97
2019-06-08T05:08:43.251Z,25.47
2019-06-08T05:11:50.659Z,22.40
2019-06-08T05:14:58.121Z,27.07
2019-06-08T05:18:05.795Z,27.97
2019-06-08T05:21:13.223Z,25.27
2019-06-08T05:24:21.331Z,27.13
2019-06-08T05:27:28.803Z,25.27
2019-06-08T05:30:36.302Z,23.80
2019-06-08T05:33:43.771Z,26.10
2019-06-08T05:36:51.254Z,24.60
2019-06-08T05:39:58.712Z,22.93
2019-06-08T05:43:06.280Z,26.73
2019-06-08T05:46:13.757Z,22.03
2019-06-08T05:49:21.334Z,21.80
2019-06-08T05:52:28.825Z,22.17
2019-06-08T05:55:36.247Z,25.93
2019-06-08T05:58:43.940Z,21.07
2019-06-08T06:01:51.569Z,26.03
2019-06-08T06:04:59.101Z,19.80
2019-06-08T06:08:17.963Z,18.90
2019-06-08T06:11:15.791Z,23.80
2019-06-08T06:14:24.522Z,19.80
2019-06-08T06:17:31.982Z,16.40
2019-06-08T06:20:41.008Z,16.13
2019-06-08T06:23:49.308Z,15.63
2019-06-08T06:26:57.147Z,14.00
2019-06-08T06:30:04.900Z,15.43
2019-06-08T06:33:12.337Z,13.60
2019-06-08T06:36:21.031Z,13.40
2019-06-08T06:39:28.540Z,11.70
2019-06-08T06:42:36.103Z,11.57
2019-06-08T06:45:43.981Z,10.17
2019-06-08T06:48:52.509Z,10.40
2019-06-08T06:52:00.324Z,10.40
2019-06-08T06:55:08.917Z,14.30
2019-06-08T06:58:16.413Z,11.53
2019-06-08T07:01:24.174Z,11.40
2019-06-08T07:04:31.760Z,11.57
2019-06-08T07:07:39.296Z,12.47
2019-06-08T07:10:49.382Z,11.43
2019-06-08T07:13:57.057Z,11.27
2019-06-08T07:17:04.602Z,11.17
2019-06-08T07:20:12.281Z,11.50
2019-06-08T07:23:19.946Z,10.80
2019-06-08T07:26:27.514Z,10.83
2019-06-08T07:29:35.108Z,11.17
2019-06-08T07:32:42.702Z,10.80
2019-06-08T07:35:51.567Z,12.40
2019-06-08T07:38:59.649Z,11.03
2019-06-08T07:42:07.290Z,11.23
2019-06-08T07:45:14.936Z,11.53
2019-06-08T07:48:24.128Z,10.90
2019-06-08T07:51:31.833Z,12.23
2019-06-08T07:54:39.290Z,10.80
2019-06-08T07:57:48.501Z,9.73
2019-06-08T08:01:03.653Z,10.07
2019-06-08T08:04:04.896Z,10.53
2019-06-08T08:07:12.562Z,11.90
2019-06-08T08:10:20.145Z,11.40
2019-06-08T08:13:27.611Z,12.50
2019-06-08T08:16:35.088Z,11.63
2019-06-08T08:19:42.646Z,10.80
2019-06-08T08:22:54.402Z,11.80
2019-06-08T08:26:01.751Z,11.13
2019-06-08T08:29:08.566Z,11.00
2019-06-08T08:32:18.606Z,10.77
2019-06-08T08:35:25.217Z,12.03
2019-06-08T08:38:32.637Z,14.20
2019-06-08T08:41:40.083Z,11.47
2019-06-08T08:44:48.633Z,11.17
2019-06-08T08:48:14.432Z,10.60
2019-06-08T08:51:08.605Z,13.23
2019-06-08T08:54:18.138Z,8.80
2019-06-08T08:57:25.710Z,19.07
2019-06-08T09:00:33.379Z,10.87
2019-06-08T09:03:40.893Z,13.30
2019-06-08T09:06:48.434Z,13.67
2019-06-08T09:09:59.422Z,10.73
2019-06-08T09:13:05.166Z,9.40
2019-06-08T09:16:12.623Z,9.00
2019-06-08T09:19:21.043Z,8.80
2019-06-08T09:22:31.150Z,9.67
2019-06-08T09:25:40.393Z,8.87
2019-06-08T09:28:46.789Z,9.57
2019-06-08T09:31:54.287Z,8.60
2019-06-08T09:35:04.652Z,9.17
2019-06-08T09:38:11.099Z,13.50
2019-06-08T09:41:18.798Z,9.90
2019-06-08T09:44:28.112Z,10.70
2019-06-08T09:47:37.948Z,9.90
2019-06-08T09:50:44.471Z,10.53
2019-06-08T09:53:54.248Z,10.17
2019-06-08T09:57:03.962Z,10.97
2019-06-08T10:00:18.008Z,10.67
2019-06-08T10:03:20.835Z,17.97
2019-06-08T10:06:28.457Z,19.80
2019-06-08T10:09:37.989Z,21.80
2019-06-08T10:12:44.921Z,25.30
2019-06-08T10:15:52.387Z,23.80
2019-06-08T10:19:03.578Z,27.67
2019-06-08T10:22:09.029Z,26.53
2019-06-08T10:25:16.697Z,23.77
2019-06-08T10:28:24.162Z,23.87
2019-06-08T10:31:38.890Z,24.17
2019-06-08T10:34:40.855Z,23.50
2019-06-08T10:37:51.210Z,25.60
2019-06-08T10:41:10.411Z,23.83
2019-06-08T10:44:14.431Z,27.93
2019-06-08T10:47:22.141Z,23.43
2019-06-08T10:50:29.686Z,26.70
2019-06-08T10:53:46.399Z,23.60
2019-06-08T10:56:48.421Z,23.70
2019-06-08T10:59:57.573Z,22.67
2019-06-08T11:03:06.697Z,22.00
2019-06-08T11:06:13.731Z,23.57
2019-06-08T11:09:21.554Z,22.57
2019-06-08T11:12:29.219Z,23.10
2019-06-08T11:15:37.823Z,22.73
2019-06-08T11:18:45.623Z,23.13
2019-06-08T11:21:53.071Z,19.70
2019-06-08T11:25:01.965Z,20.87
2019-06-08T11:28:14.905Z,19.47
2019-06-08T11:31:19.828Z,17.23
2019-06-08T11:34:28.809Z,17.17
2019-06-08T11:37:38.763Z,16.60
2019-06-08T11:40:47.819Z,17.83
2019-06-08T11:43:59.554Z,17.93
2019-06-08T11:47:04.651Z,18.40
2019-06-08T11:50:13.476Z,18.47
2019-06-08T11:53:21.055Z,18.97
2019-06-08T11:56:29.117Z,17.03
2019-06-08T11:59:37.491Z,16.33
2019-06-08T12:02:45.157Z,16.30
2019-06-08T12:05:52.667Z,15.73
2019-06-08T12:09:00.305Z,15.83
2019-06-08T12:12:17.153Z,14.33
2019-06-08T12:15:21.201Z,15.37
2019-06-08T12:18:28.708Z,14.03
2019-06-08T12:21:36.246Z,14.40
2019-06-08T12:24:43.698Z,14.53
2019-06-08T12:27:52.776Z,13.90
2019-06-08T12:31:01.149Z,13.27
2019-06-08T12:34:09.237Z,22.63
2019-06-08T12:37:21.790Z,20.63
2019-06-08T12:40:28.097Z,12.50
2019-06-08T12:43:34.936Z,11.63
2019-06-08T12:46:42.476Z,13.63
2019-06-08T12:49:49.924Z,14.70
2019-06-08T12:52:58.393Z,9.63
2019-06-08T12:56:05.992Z,10.47
2019-06-08T12:59:17.017Z,13.67
2019-06-08T13:02:24.252Z,11.03
2019-06-08T13:05:33.029Z,11.17
2019-06-08T13:08:40.488Z,11.80
2019-06-08T13:11:50.516Z,11.80
2019-06-08T13:14:58.176Z,10.70
2019-06-08T13:18:05.859Z,16.20
2019-06-08T13:21:25.411Z,13.53
2019-06-08T13:24:22.583Z,16.40
2019-06-08T13:27:30.122Z,15.97
2019-06-08T13:30:38.984Z,8.60
2019-06-08T13:33:48.571Z,10.33
2019-06-08T13:36:55.805Z,8.30
2019-06-08T13:40:03.360Z,14.43
2019-06-08T13:43:11.227Z,7.40
2019-06-08T13:46:20.763Z,6.50
2019-06-08T13:49:30.825Z,4.80
2019-06-08T13:52:38.290Z,10.47
2019-06-08T13:55:53.201Z,7.40
2019-06-08T13:58:54.995Z,8.93
2019-06-08T14:02:02.821Z,13.30
2019-06-08T14:05:10.529Z,5.90
2019-06-08T14:08:20.690Z,7.00
2019-06-08T14:11:28.072Z,6.67
2019-06-08T14:14:39.680Z,10.07
2019-06-08T14:17:47.383Z,8.10
2019-06-08T14:20:54.778Z,5.43
2019-06-08T14:24:03.619Z,7.00
2019-06-08T14:27:11.050Z,11.63
2019-06-08T14:30:20.794Z,6.80
2019-06-08T14:33:33.054Z,9.50
2019-06-08T14:36:40.580Z,5.10
2019-06-08T14:39:45.911Z,5.77
2019-06-08T14:42:53.382Z,4.43
2019-06-08T14:46:00.839Z,5.20
2019-06-08T14:49:09.884Z,6.97
2019-06-08T14:52:19.343Z,4.57
2019-06-08T14:55:31.646Z,10.03
2019-06-08T14:58:35.584Z,3.90
2019-06-08T15:01:43.045Z,5.23
2019-06-08T15:04:50.615Z,9.60
2019-06-08T15:08:00.744Z,7.60
2019-06-08T15:11:08.119Z,6.20
2019-06-08T15:14:15.838Z,8.57
2019-06-08T15:17:23.768Z,6.00
2019-06-08T15:20:31.329Z,5.07
2019-06-08T15:23:38.762Z,5.30
2019-06-08T15:26:48.666Z,3.87
2019-06-08T15:29:55.823Z,4.27
2019-06-08T15:33:03.214Z,3.40
2019-06-08T15:36:10.650Z,4.80
2019-06-08T15:39:18.170Z,3.40
2019-06-08T15:42:28.690Z,5.07
2019-06-08T15:45:34.871Z,3.73
2019-06-08T15:48:42.293Z,3.67
2019-06-08T15:51:49.697Z,5.27
2019-06-08T15:54:59.017Z,5.30
2019-06-08T15:58:08.705Z,4.33
2019-06-08T16:01:15.488Z,2.93
2019-06-08T16:04:23.422Z,5.43
2019-06-08T16:07:32.754Z,3.47
2019-06-08T16:10:40.993Z,4.63
2019-06-08T16:13:48.440Z,3.90
2019-06-08T16:16:56.079Z,4.83
2019-06-08T16:20:03.515Z,5.43
2019-06-08T16:23:11.107Z,3.30
2019-06-08T16:26:19.002Z,2.73
2019-06-08T16:29:26.909Z,2.90
2019-06-08T16:32:35.395Z,5.30
2019-06-08T16:35:42.981Z,5.20
2019-06-08T16:38:52.834Z,3.27
2019-06-08T16:41:59.869Z,2.70
2019-06-08T16:45:07.861Z,4.57
2019-06-08T16:48:15.314Z,3.63
2019-06-08T16:51:22.974Z,7.83
2019-06-08T16:54:30.647Z,2.17
2019-06-08T16:57:40.784Z,2.40
2019-06-08T17:00:47.431Z,4.63
2019-06-08T17:03:54.973Z,3.47
2019-06-08T17:07:03.277Z,4.20
2019-06-08T17:10:10.937Z,6.07
2019-06-08T17:13:18.381Z,11.63
2019-06-08T17:16:26.011Z,4.87
2019-06-08T17:19:34.097Z,3.90
2019-06-08T17:22:41.708Z,3.90
2019-06-08T17:25:49.161Z,4.00
2019-06-08T17:28:56.645Z,3.90
2019-06-08T17:32:04.113Z,2.90
2019-06-08T17:35:12.241Z,2.23
2019-06-08T17:38:19.815Z,7.63
2019-06-08T17:41:27.393Z,2.43
2019-06-08T17:44:36.389Z,2.63
2019-06-08T17:47:44.364Z,4.60
2019-06-08T17:50:51.918Z,2.30
2019-06-08T17:53:59.440Z,4.83
2019-06-08T17:57:06.889Z,3.53
2019-06-08T18:00:14.906Z,3.90
2019-06-08T18:03:22.449Z,2.90
2019-06-08T18:06:29.903Z,4.33
2019-06-08T18:09:39.258Z,6.73
2019-06-08T18:12:49.032Z,3.57
2019-06-08T18:15:57.586Z,2.97
2019-06-08T18:19:04.985Z,2.63
2019-06-08T18:22:15.316Z,3.47
2019-06-08T18:25:21.527Z,4.00
2019-06-08T18:28:28.973Z,7.33
2019-06-08T18:31:39.654Z,6.40
2019-06-08T18:34:47.926Z,5.83
2019-06-08T18:37:54.715Z,6.00
2019-06-08T18:41:02.160Z,4.90
2019-06-08T18:44:09.610Z,4.73
2019-06-08T18:47:20.089Z,3.27
2019-06-08T18:50:28.469Z,5.50
2019-06-08T18:53:54.366Z,5.23
2019-06-08T18:56:48.416Z,7.30
2019-06-08T18:59:54.398Z,10.50
2019-06-08T19:03:01.899Z,11.10
2019-06-08T19:06:10.429Z,9.00
2019-06-08T19:09:18.220Z,12.87
2019-06-08T19:12:27.665Z,8.63
2019-06-08T19:15:40.685Z,8.23
2019-06-08T19:18:48.944Z,9.60
2019-06-08T19:21:54.501Z,8.63
2019-06-08T19:25:02.055Z,7.20
2019-06-08T19:28:09.739Z,9.10
2019-06-08T19:31:17.646Z,8.43
2019-06-08T19:34:27.926Z,11.87
2019-06-08T19:37:34.323Z,13.70
2019-06-08T19:40:42.664Z,13.03
2019-06-08T19:43:54.551Z,9.23
2019-06-08T19:46:59.612Z,13.20
2019-06-08T19:50:07.958Z,14.60
2019-06-08T19:53:18.376Z,16.00
2019-06-08T19:56:27.972Z,17.27
2019-06-08T19:59:35.334Z,11.13
2019-06-08T20:02:44.638Z,12.03
2019-06-08T20:05:53.608Z,8.67
2019-06-08T20:09:01.853Z,7.43
2019-06-08T20:12:10.945Z,7.20
2019-06-08T20:15:18.533Z,8.63
2019-06-08T20:18:27.981Z,10.07
2019-06-08T20:21:35.493Z,8.77
2019-06-08T20:24:44.057Z,8.00
2019-06-08T20:27:51.755Z,11.23
2019-06-08T20:30:59.939Z,18.47
2019-06-08T20:34:07.390Z,22.17
2019-06-08T20:37:14.835Z,17.67
2019-06-08T20:40:22.346Z,16.67
2019-06-08T20:43:29.852Z,11.93
2019-06-08T20:46:37.754Z,13.50
2019-06-08T20:49:48.630Z,11.80
2019-06-08T20:52:54.566Z,12.77
2019-06-08T20:56:02.047Z,13.80
2019-06-08T20:59:09.534Z,13.50
2019-06-08T21:02:17.841Z,13.10
2019-06-08T21:05:27.603Z,15.00
2019-06-08T21:08:34.377Z,13.20
2019-06-08T21:11:41.925Z,13.50
2019-06-08T21:14:52.284Z,14.73
2019-06-08T21:17:59.995Z,20.37
2019-06-08T21:21:08.119Z,12.80
2019-06-08T21:24:17.317Z,11.33
2019-06-08T21:27:24.928Z,11.93
2019-06-08T21:30:32.456Z,8.40
2019-06-08T21:33:39.915Z,10.80
2019-06-08T21:36:49.811Z,8.17
2019-06-08T21:40:03.171Z,10.97
2019-06-08T21:43:07.926Z,17.30
2019-06-08T21:46:14.636Z,8.07
2019-06-08T21:49:22.159Z,7.73
2019-06-08T21:52:29.589Z,7.70
2019-06-08T21:55:38.290Z,8.30
2019-06-08T21:58:47.283Z,11.23
2019-06-08T22:01:59.005Z,8.10
2019-06-08T22:05:04.872Z,9.67
2019-06-08T22:08:12.618Z,14.27
2019-06-08T22:11:20.135Z,13.90
2019-06-08T22:14:27.575Z,11.93
2019-06-08T22:17:38.087Z,8.60
2019-06-08T22:20:47.645Z,11.17
2019-06-08T22:23:55.858Z,13.00
2019-06-08T22:27:03.672Z,12.17
2019-06-08T22:30:22.920Z,15.77
2019-06-08T22:33:22.260Z,9.03
2019-06-08T22:36:29.949Z,13.37
2019-06-08T22:39:38.057Z,13.20
2019-06-08T22:42:48.104Z,9.90
2019-06-08T22:45:57.561Z,14.37
2019-06-08T22:49:04.621Z,20.27
2019-06-08T22:52:12.307Z,14.10
2019-06-08T22:55:19.853Z,16.93
2019-06-08T22:58:27.688Z,15.00
2019-06-08T23:01:35.197Z,15.17
2019-06-08T23:04:42.763Z,13.10
2019-06-08T23:07:52.358Z,16.80
2019-06-08T23:11:02.005Z,17.40
2019-06-08T23:14:12.883Z,15.50
2019-06-08T23:17:18.187Z,14.20
2019-06-08T23:20:27.578Z,13.83
2019-06-08T23:23:34.769Z,14.93
2019-06-08T23:26:42.233Z,15.23
2019-06-08T23:29:49.829Z,18.90
2019-06-08T23:33:01.459Z,14.97
2019-06-08T23:39:22.249Z,17.23
2019-06-08T23:42:29.682Z,19.60
2019-06-08T23:45:38.009Z,15.33
2019-06-08T23:48:48.152Z,20.80
2019-06-08T23:51:54.853Z,21.50
2019-06-08T23:55:04.263Z,19.40
2019-06-08T23:58:13.525Z,18.90
